LJPZ

Details ICAO LJPZ (POW)
Name PORTOROZ
Region Slovenia
Timezone Europe/Ljubljana (UTC+1.0)
Plans Departing 33
Arriving 73
Stats Elevation 7 ft / 2 m (AMSL)
Location 45.472445° 13.615681°
Runways 1
Magnetic Variation 3.443° E
Sunrise 2017-12-13 06:38:32 UTC / 2017-12-13 07:38:32 Local
Sunset 2017-12-13 15:23:45 UTC / 2017-12-13 16:23:45 Local
Advertisement - Login to hide

Runways

ID Width Length Bearing (true) Bearing (mag) Surface Threshold Offset Overrun Length
15 98 ft / 30 m 3,939 ft / 1,201 m 151.28° 147.84° Asphalt 0 ft / 0 m 0 ft / 0 m
33 98 ft / 30 m 3,939 ft / 1,201 m 331.29° 327.85° Asphalt 751 ft / 229 m 0 ft / 0 m

Map

Weather


0- 5 10 15 20 25 30 35+ Temperature / ° C

Clouds and Precipitation
Forecast for 2017-12-13 00:00 UTC. Updated an hour ago

Ground ~20,000 ft ~40,000 ft Winds

METAR

LJPZ 130000Z AUTO 12007KT 9999 FEW075/// BKN110/// BKN130/// 10/06 Q1015

TAF

Not found

Frequencies

Tower 129.32 MHz Portoroz TWR
Approach 129.32 MHz Portoroz APP
Warning: Do not use this data for real-world aviation or navigation. No guarantee of current accuracy is given.